Time;durP1;ratioP1;P1;durP2;ratioP2;P2;SDS_P1;SDS_P2;PMS_P1;PMS_P2;Temp;Humidity;BMP_temperature;BMP_pressure;BME280_temperature;BME280_humidity;BME280_pressure;Samples;Min_cycle;Max_cycle;Signal;HPM_P1;HPM_P2
2021/05/27 00:00:43;;;;;;;6.70;4.50;;;10.70;99.90;;;;;;5099508;28;20317;-78
2021/05/27 00:03:10;;;;;;;6.20;4.53;;;10.60;99.90;;;;;;5116973;28;20182;-78
2021/05/27 00:05:36;;;;;;;7.37;4.60;;;10.60;99.90;;;;;;5084086;28;20176;-78
2021/05/27 00:08:03;;;;;;;8.23;4.90;;;10.60;99.90;;;;;;5100113;28;20225;-77
2021/05/27 00:10:30;;;;;;;7.50;4.73;;;10.60;99.90;;;;;;5100231;28;20191;-79
2021/05/27 00:12:57;;;;;;;7.13;4.37;;;10.50;99.90;;;;;;5084166;28;20183;-78
2021/05/27 00:15:25;;;;;;;6.20;4.67;;;10.50;99.90;;;;;;5083523;28;20654;-78
2021/05/27 00:17:51;;;;;;;7.10;4.93;;;10.50;99.90;;;;;;5100333;28;20181;-78
2021/05/27 00:20:17;;;;;;;8.77;5.03;;;10.50;99.90;;;;;;5117571;28;20186;-78
2021/05/27 00:22:42;;;;;;;9.63;4.90;;;10.50;99.90;;;;;;5118639;28;20167;-79
2021/05/27 00:25:10;;;;;;;8.87;5.30;;;10.50;99.90;;;;;;5104033;28;20161;-79
2021/05/27 00:27:36;;;;;;;8.13;4.53;;;10.50;99.90;;;;;;5104943;28;20171;-79
2021/05/27 00:30:03;;;;;;;8.13;4.70;;;10.50;99.90;;;;;;5086323;28;20224;-79
2021/05/27 00:32:29;;;;;;;7.33;4.53;;;10.40;99.90;;;;;;5083826;28;20204;-78
2021/05/27 00:34:55;;;;;;;5.97;4.07;;;10.40;99.90;;;;;;5083826;28;20209;-79
2021/05/27 00:37:21;;;;;;;7.87;4.50;;;10.30;99.90;;;;;;5084415;28;20175;-79
2021/05/27 00:39:48;;;;;;;6.13;3.50;;;10.30;99.90;;;;;;5100330;28;20213;-79
2021/05/27 00:42:14;;;;;;;6.70;3.30;;;10.30;99.90;;;;;;5100051;28;20304;-79
2021/05/27 00:44:40;;;;;;;3.93;2.83;;;10.20;99.90;;;;;;5082468;28;20224;-78
2021/05/27 01:17:24;;;;;;;0.73;0.73;;;9.60;99.90;;;;;;5094143;28;20645;-77
2021/05/27 01:19:53;;;;;;;1.20;0.80;;;9.60;99.90;;;;;;5059808;28;20202;-77
2021/05/27 01:22:22;;;;;;;0.87;0.70;;;9.60;99.90;;;;;;5061308;28;20264;-78
2021/05/27 01:24:48;;;;;;;0.80;0.80;;;9.50;99.90;;;;;;5095673;28;20231;-77
2021/05/27 01:27:15;;;;;;;1.57;0.70;;;9.50;99.90;;;;;;5077093;28;20183;-77
2021/05/27 01:29:42;;;;;;;1.13;0.80;;;9.60;99.90;;;;;;5060230;28;20183;-77
2021/05/27 01:32:09;;;;;;;0.80;0.80;;;9.60;99.90;;;;;;5061120;28;20564;-77
2021/05/27 01:34:35;;;;;;;1.13;0.80;;;9.50;99.90;;;;;;5059950;28;20232;-77
2021/05/27 01:37:01;;;;;;;1.00;0.80;;;9.50;99.90;;;;;;5059716;28;20278;-77
2021/05/27 01:39:26;;;;;;;1.43;0.80;;;9.60;99.90;;;;;;5059270;28;20198;-78
2021/05/27 01:41:52;;;;;;;0.87;0.83;;;9.50;99.90;;;;;;5076907;28;20175;-78
2021/05/27 01:44:17;;;;;;;0.73;0.73;;;9.60;99.90;;;;;;5060558;28;20181;-78
2021/05/27 01:46:46;;;;;;;1.13;0.93;;;9.60;99.90;;;;;;5060172;28;20694;-78
2021/05/27 01:49:12;;;;;;;0.93;0.70;;;9.60;99.90;;;;;;5060688;28;20223;-78
2021/05/27 01:51:38;;;;;;;1.23;1.10;;;9.60;99.90;;;;;;5093749;28;20203;-78
2021/05/27 01:54:04;;;;;;;1.33;0.87;;;9.60;99.90;;;;;;5059583;28;20687;-78
2021/05/27 01:56:29;;;;;;;0.97;0.93;;;9.60;99.90;;;;;;5093823;28;20247;-78
2021/05/27 01:59:04;;;;;;;1.00;0.90;;;9.50;99.90;;;;;;5093565;28;20187;-78
2021/05/27 02:01:31;;;;;;;1.40;1.10;;;9.50;99.90;;;;;;5076622;28;20203;-78
2021/05/27 02:03:56;;;;;;;0.87;0.70;;;9.60;99.90;;;;;;5076233;28;20186;-78
2021/05/27 02:06:22;;;;;;;1.33;1.10;;;9.50;99.90;;;;;;5093612;28;20550;-77
2021/05/27 02:11:33;;;;;;;1.30;0.90;;;9.60;99.90;;;;;;5091890;28;20652;-77
2021/05/27 02:13:58;;;;;;;2.13;1.20;;;9.60;99.90;;;;;;5075075;28;20198;-77
2021/05/27 02:16:24;;;;;;;1.20;1.10;;;9.60;99.90;;;;;;5074941;28;20199;-77
2021/05/27 02:18:50;;;;;;;2.43;1.00;;;9.60;99.90;;;;;;5091397;28;20172;-77
2021/05/27 02:21:15;;;;;;;1.50;1.10;;;9.60;99.90;;;;;;5057817;28;20199;-77
2021/05/27 02:23:41;;;;;;;2.53;1.17;;;9.60;99.90;;;;;;5090886;28;20266;-77
2021/05/27 02:26:08;;;;;;;1.37;1.20;;;9.60;99.90;;;;;;5074532;28;20170;-77
2021/05/27 02:28:33;;;;;;;2.07;1.20;;;9.50;99.90;;;;;;5091320;28;20306;-77
2021/05/27 02:30:59;;;;;;;2.27;1.30;;;9.50;99.90;;;;;;5074407;28;20280;-77
2021/05/27 02:33:25;;;;;;;2.30;1.13;;;9.50;99.90;;;;;;5076492;28;20213;-77
2021/05/27 02:35:50;;;;;;;2.20;1.10;;;9.50;99.90;;;;;;5094710;28;21053;-78
2021/05/27 02:38:16;;;;;;;2.30;1.20;;;9.50;99.90;;;;;;5059974;28;20236;-78
2021/05/27 02:40:42;;;;;;;1.60;1.13;;;9.50;99.90;;;;;;5076540;28;20734;-77
2021/05/27 02:43:08;;;;;;;2.40;0.97;;;9.50;99.90;;;;;;5059738;28;20205;-77
2021/05/27 02:45:35;;;;;;;1.03;0.90;;;9.50;99.90;;;;;;5093087;28;20177;-78
2021/05/27 02:48:00;;;;;;;1.03;0.90;;;9.50;99.90;;;;;;5059419;28;20188;-78
2021/05/27 02:50:26;;;;;;;3.67;1.23;;;9.50;99.90;;;;;;5075360;28;20225;-77
2021/05/27 02:52:51;;;;;;;2.00;1.33;;;9.50;99.90;;;;;;5091851;28;20639;-77
2021/05/27 02:55:17;;;;;;;2.67;1.13;;;9.50;99.90;;;;;;5092503;28;20178;-77
2021/05/27 02:57:43;;;;;;;1.30;0.90;;;9.50;99.90;;;;;;5075089;28;20197;-77
2021/05/27 03:00:09;;;;;;;1.20;1.10;;;9.50;99.90;;;;;;5091338;28;20225;-77
2021/05/27 03:02:35;;;;;;;1.70;1.20;;;9.50;99.90;;;;;;5058110;28;20178;-78
2021/05/27 03:05:02;;;;;;;4.13;1.20;;;9.50;99.90;;;;;;5075097;28;20187;-77
2021/05/27 03:07:28;;;;;;;2.17;1.40;;;9.50;99.90;;;;;;5075327;28;20264;-77
2021/05/27 03:09:55;;;;;;;2.77;1.60;;;9.50;99.90;;;;;;5074054;28;20563;-77
2021/05/27 03:12:20;;;;;;;1.80;1.30;;;9.50;99.90;;;;;;5074671;28;20692;-77
2021/05/27 03:14:47;;;;;;;1.50;1.20;;;9.50;99.90;;;;;;5074369;28;20256;-78
2021/05/27 03:17:13;;;;;;;2.37;1.40;;;9.40;99.90;;;;;;5057580;28;20174;-77
2021/05/27 03:19:38;;;;;;;1.27;1.17;;;9.50;99.90;;;;;;5057403;28;20660;-77
2021/05/27 03:22:04;;;;;;;2.57;1.70;;;9.50;99.90;;;;;;5057899;28;20175;-78
2021/05/27 03:24:30;;;;;;;2.00;1.53;;;9.40;99.90;;;;;;5078904;28;20177;-77
2021/05/27 03:26:55;;;;;;;1.97;1.43;;;9.50;99.90;;;;;;5059385;28;20561;-78
2021/05/27 03:29:21;;;;;;;1.70;1.50;;;9.50;99.90;;;;;;5076371;28;20180;-78
2021/05/27 03:31:47;;;;;;;1.70;1.37;;;9.50;99.90;;;;;;5092734;28;20227;-78
2021/05/27 03:34:13;;;;;;;3.93;1.70;;;9.50;99.90;;;;;;5075985;28;20709;-78
2021/05/27 03:36:38;;;;;;;4.97;2.10;;;9.50;99.90;;;;;;5076106;28;20212;-78
2021/05/27 03:39:04;;;;;;;2.73;1.70;;;9.50;99.90;;;;;;5076579;28;20189;-78
2021/05/27 03:41:31;;;;;;;4.23;1.70;;;9.50;99.90;;;;;;5076617;28;20254;-78
2021/05/27 03:43:58;;;;;;;3.00;2.00;;;9.60;99.90;;;;;;5077219;28;20177;-78
2021/05/27 03:46:24;;;;;;;4.63;1.97;;;9.50;99.90;;;;;;5060638;28;20181;-78
2021/05/27 03:48:50;;;;;;;2.57;1.93;;;9.50;99.90;;;;;;5060766;28;20786;-78
2021/05/27 03:51:17;;;;;;;2.80;2.10;;;9.50;99.90;;;;;;5058841;28;20702;-78
2021/05/27 03:53:42;;;;;;;3.17;1.93;;;9.50;99.90;;;;;;5059919;28;20177;-79
2021/05/27 03:56:08;;;;;;;5.23;2.30;;;9.50;99.90;;;;;;5059043;28;20169;-78
2021/05/27 04:01:18;;;;;;;3.57;2.60;;;9.60;99.90;;;;;;5071029;28;20288;-82
2021/05/27 04:09:12;;;;;;;4.43;1.93;;;9.60;99.90;;;;;;5086902;28;20186;-80
2021/05/27 04:11:38;;;;;;;3.70;2.17;;;9.60;99.90;;;;;;5084333;28;20201;-81
2021/05/27 04:14:03;;;;;;;2.00;1.73;;;9.60;99.90;;;;;;5067926;28;20176;-82
2021/05/27 04:16:29;;;;;;;4.07;1.83;;;9.60;99.90;;;;;;5101173;28;20550;-80
2021/05/27 04:18:55;;;;;;;3.10;1.97;;;9.60;99.90;;;;;;5086055;28;20173;-79
2021/05/27 04:21:22;;;;;;;3.53;1.70;;;9.60;99.90;;;;;;5068470;28;20621;-79
2021/05/27 04:23:48;;;;;;;5.47;2.00;;;9.70;99.90;;;;;;5086015;28;20236;-78
2021/05/27 04:26:15;;;;;;;3.07;2.10;;;9.70;99.90;;;;;;5085589;28;20215;-79
2021/05/27 04:28:42;;;;;;;3.00;1.90;;;9.70;99.90;;;;;;5067878;28;20180;-82
2021/05/27 04:31:14;;;;;;;3.30;2.17;;;9.70;99.90;;;;;;5064153;28;20211;-80
2021/05/27 04:33:51;;;;;;;2.80;1.77;;;9.80;99.90;;;;;;5098732;28;20168;-81
2021/05/27 04:36:20;;;;;;;2.97;2.17;;;9.70;99.90;;;;;;5083261;28;20694;-78
2021/05/27 04:38:46;;;;;;;4.17;2.30;;;9.70;99.90;;;;;;5082287;28;20693;-79
2021/05/27 04:41:11;;;;;;;2.57;1.87;;;9.70;99.90;;;;;;5080131;28;20682;-80
2021/05/27 04:43:40;;;;;;;4.43;1.97;;;9.70;99.90;;;;;;5080960;28;20234;-79
2021/05/27 04:46:06;;;;;;;3.00;2.10;;;9.80;99.90;;;;;;5063097;28;20181;-79
2021/05/27 04:48:31;;;;;;;3.87;2.10;;;9.80;99.90;;;;;;5063331;28;20524;-78
2021/05/27 04:50:57;;;;;;;3.67;2.10;;;9.70;99.90;;;;;;5062990;28;20213;-80
2021/05/27 04:53:23;;;;;;;3.93;1.90;;;9.80;99.90;;;;;;5059638;28;20183;-80
2021/05/27 04:55:51;;;;;;;4.50;1.90;;;9.80;99.90;;;;;;5087148;28;20203;-80
2021/05/27 04:58:17;;;;;;;4.37;1.93;;;9.80;99.90;;;;;;5060477;28;20681;-80
2021/05/27 05:00:43;;;;;;;3.63;1.57;;;9.70;99.90;;;;;;5059093;28;20202;-82
2021/05/27 05:03:08;;;;;;;3.63;1.97;;;9.80;99.90;;;;;;5059418;28;20173;-79
2021/05/27 05:05:35;;;;;;;3.03;1.87;;;9.70;99.90;;;;;;5058160;28;20271;-79
2021/05/27 05:08:01;;;;;;;3.33;1.90;;;9.70;99.90;;;;;;5058299;28;20683;-79
2021/05/27 05:10:27;;;;;;;2.93;1.90;;;9.70;99.90;;;;;;5074779;28;20197;-79
2021/05/27 05:12:53;;;;;;;3.03;2.00;;;9.70;99.90;;;;;;5057294;28;20182;-79
2021/05/27 05:15:22;;;;;;;4.30;2.20;;;9.80;99.90;;;;;;5075273;28;20639;-78
2021/05/27 05:18:04;;;;;;;5.37;2.00;;;9.80;99.90;;;;;;5057761;28;20185;-79
2021/05/27 05:20:31;;;;;;;2.80;1.97;;;9.70;99.90;;;;;;5073820;28;20576;-78
2021/05/27 05:22:58;;;;;;;2.47;1.70;;;9.70;99.90;;;;;;5074073;28;20174;-78
2021/05/27 05:25:27;;;;;;;5.90;2.10;;;9.70;99.90;;;;;;5057853;28;20648;-78
2021/05/27 05:27:53;;;;;;;2.27;1.53;;;9.70;99.90;;;;;;5086962;28;20258;-78
2021/05/27 05:30:19;;;;;;;2.87;1.70;;;9.70;99.90;;;;;;5077934;28;20265;-78
2021/05/27 05:32:45;;;;;;;3.70;2.27;;;9.70;99.90;;;;;;5068630;28;20300;-78
2021/05/27 05:35:12;;;;;;;3.17;1.77;;;9.70;99.90;;;;;;5060640;28;20205;-79
2021/05/27 05:37:38;;;;;;;4.80;2.23;;;9.70;99.90;;;;;;5094717;28;20748;-79
2021/05/27 05:40:05;;;;;;;3.07;1.70;;;9.80;99.90;;;;;;5077080;28;20249;-78
2021/05/27 05:42:31;;;;;;;3.27;1.90;;;9.80;99.90;;;;;;5061123;28;20186;-78
2021/05/27 05:44:56;;;;;;;6.03;2.07;;;9.80;99.90;;;;;;5061035;28;20233;-78
2021/05/27 05:47:22;;;;;;;2.97;2.40;;;9.80;99.90;;;;;;5077875;28;20232;-78
2021/05/27 05:49:47;;;;;;;4.37;2.30;;;9.80;99.90;;;;;;5077602;28;20193;-79
2021/05/27 05:52:13;;;;;;;3.30;1.80;;;9.80;99.90;;;;;;5098664;28;20677;-80
2021/05/27 05:54:39;;;;;;;3.03;1.90;;;9.90;99.90;;;;;;5081812;28;20172;-80
2021/05/27 05:57:05;;;;;;;2.73;1.73;;;9.90;99.90;;;;;;5064963;28;20265;-80
2021/05/27 05:59:31;;;;;;;2.83;1.70;;;9.90;99.90;;;;;;5081204;28;20551;-80
2021/05/27 06:01:56;;;;;;;2.57;1.90;;;9.90;99.90;;;;;;5064239;28;20664;-79
2021/05/27 06:04:23;;;;;;;3.83;2.33;;;9.90;99.90;;;;;;5080523;28;20179;-78
2021/05/27 06:06:51;;;;;;;2.57;1.80;;;10.00;99.90;;;;;;5067950;28;20187;-79
2021/05/27 06:09:18;;;;;;;3.37;2.10;;;10.00;99.90;;;;;;5062157;28;20178;-79
2021/05/27 06:11:43;;;;;;;4.07;1.67;;;9.90;99.90;;;;;;5077009;28;20203;-79
2021/05/27 06:14:09;;;;;;;2.97;2.03;;;9.90;99.90;;;;;;5076012;28;20162;-79
2021/05/27 06:16:35;;;;;;;4.40;2.10;;;9.90;99.90;;;;;;5074165;28;20590;-80
2021/05/27 06:19:01;;;;;;;3.37;1.80;;;10.00;99.90;;;;;;5074586;28;20172;-78
2021/05/27 06:21:27;;;;;;;2.40;1.80;;;9.90;99.90;;;;;;5057640;28;20584;-80
2021/05/27 06:23:53;;;;;;;3.90;1.77;;;9.90;99.90;;;;;;5056673;28;20185;-80
2021/05/27 06:26:18;;;;;;;2.57;1.80;;;10.00;99.90;;;;;;5070854;28;20216;-79
2021/05/27 06:28:44;;;;;;;2.13;1.60;;;9.90;99.90;;;;;;5070864;28;20575;-79
2021/05/27 06:31:11;;;;;;;2.20;1.67;;;9.90;99.90;;;;;;5082934;28;20204;-80
2021/05/27 06:33:37;;;;;;;2.50;1.70;;;10.00;99.90;;;;;;5060706;28;20179;-80
2021/05/27 06:36:03;;;;;;;2.17;1.57;;;10.00;99.90;;;;;;5076685;28;20747;-80
2021/05/27 06:38:29;;;;;;;2.43;1.57;;;10.00;99.90;;;;;;5075945;28;20188;-80
2021/05/27 06:40:55;;;;;;;3.20;1.50;;;9.90;99.90;;;;;;5076638;28;20194;-80
2021/05/27 06:43:20;;;;;;;2.90;1.93;;;9.90;99.90;;;;;;5076317;28;20253;-79
2021/05/27 06:45:46;;;;;;;2.03;1.30;;;9.90;99.90;;;;;;5093664;28;20171;-82
2021/05/27 06:48:13;;;;;;;3.13;1.60;;;10.00;99.90;;;;;;5060781;28;20188;-80
2021/05/27 06:50:40;;;;;;;2.57;1.90;;;10.20;99.90;;;;;;5063970;28;20228;-79
2021/05/27 06:53:06;;;;;;;2.37;1.50;;;10.20;99.90;;;;;;5076790;28;20180;-77
2021/05/27 06:55:33;;;;;;;1.77;1.27;;;10.40;99.90;;;;;;5072166;28;20196;-79
2021/05/27 06:57:59;;;;;;;4.93;2.00;;;10.50;99.90;;;;;;5072843;28;20185;-79
2021/05/27 07:00:26;;;;;;;1.80;1.50;;;10.50;99.90;;;;;;5053707;28;20206;-76
2021/05/27 07:02:52;;;;;;;2.80;1.60;;;10.60;99.90;;;;;;5037705;28;20590;-77
2021/05/27 07:05:19;;;;;;;3.20;1.20;;;10.70;99.90;;;;;;5071351;28;20175;-78
2021/05/27 07:07:45;;;;;;;3.37;1.53;;;10.70;99.90;;;;;;5038641;28;20180;-78
2021/05/27 07:10:13;;;;;;;1.30;1.10;;;10.70;99.90;;;;;;5038883;28;20200;-78
2021/05/27 07:12:38;;;;;;;2.53;1.40;;;10.60;99.90;;;;;;5072883;28;20196;-78
2021/05/27 07:15:05;;;;;;;1.57;1.30;;;10.60;99.90;;;;;;5070839;28;20197;-76
2021/05/27 07:17:32;;;;;;;1.20;1.10;;;10.60;99.90;;;;;;5078968;28;20210;-77
2021/05/27 07:19:59;;;;;;;1.63;1.20;;;10.60;99.90;;;;;;5093224;28;20192;-77
2021/05/27 07:22:24;;;;;;;2.87;1.50;;;10.50;99.90;;;;;;5077024;28;20251;-77
2021/05/27 07:24:50;;;;;;;1.97;1.30;;;10.60;99.90;;;;;;5094089;28;20179;-77
2021/05/27 07:27:16;;;;;;;2.77;1.30;;;10.50;99.90;;;;;;5094067;28;20175;-77
2021/05/27 07:29:43;;;;;;;1.40;1.10;;;10.60;99.90;;;;;;5076061;28;20203;-77
2021/05/27 07:32:08;;;;;;;2.33;1.67;;;10.60;99.90;;;;;;5094212;28;20255;-77
2021/05/27 07:34:37;;;;;;;1.57;1.37;;;10.60;99.90;;;;;;5077456;28;20179;-78
2021/05/27 07:37:02;;;;;;;2.37;1.47;;;10.60;99.90;;;;;;5080391;28;20232;-77
2021/05/27 07:39:29;;;;;;;3.13;1.47;;;10.60;99.90;;;;;;5097704;28;20186;-78
2021/05/27 07:41:54;;;;;;;2.00;1.40;;;10.50;99.90;;;;;;5098647;28;20188;-77
2021/05/27 07:44:20;;;;;;;2.33;1.57;;;10.50;99.90;;;;;;5098865;28;20175;-78
2021/05/27 07:46:46;;;;;;;1.77;1.40;;;10.50;99.90;;;;;;5081494;28;20548;-77
2021/05/27 07:49:12;;;;;;;4.63;1.20;;;10.60;99.90;;;;;;5082379;28;20176;-78
2021/05/27 07:51:37;;;;;;;1.70;1.50;;;10.70;99.90;;;;;;5081477;28;20204;-78
2021/05/27 07:54:03;;;;;;;1.67;1.37;;;10.80;99.90;;;;;;5098489;28;20179;-77
2021/05/27 07:56:29;;;;;;;2.13;1.57;;;10.80;99.90;;;;;;5098012;28;20171;-78
2021/05/27 07:58:55;;;;;;;1.10;1.00;;;10.80;99.90;;;;;;5100628;28;20178;-78
2021/05/27 08:01:21;;;;;;;2.87;1.60;;;10.80;99.90;;;;;;5099087;28;20206;-78
2021/05/27 08:03:46;;;;;;;2.77;1.30;;;10.80;99.90;;;;;;5099405;28;20605;-77
2021/05/27 08:06:12;;;;;;;1.33;1.07;;;10.80;99.90;;;;;;5099472;28;20175;-78
2021/05/27 08:08:37;;;;;;;3.37;1.10;;;10.80;99.90;;;;;;5082694;28;20182;-78
2021/05/27 08:11:03;;;;;;;3.20;1.30;;;10.80;99.90;;;;;;5099428;28;20211;-78
2021/05/27 08:13:29;;;;;;;1.93;1.30;;;10.80;99.90;;;;;;5068264;28;20273;-78
2021/05/27 08:15:55;;;;;;;4.23;1.20;;;10.80;99.90;;;;;;5069009;28;20656;-78
2021/05/27 08:18:21;;;;;;;1.73;1.37;;;10.70;99.90;;;;;;5079144;28;20225;-78
2021/05/27 08:20:47;;;;;;;1.77;1.10;;;10.80;99.90;;;;;;5071685;28;20192;-78
2021/05/27 08:23:13;;;;;;;1.80;1.30;;;10.80;99.90;;;;;;5069082;28;20248;-78
2021/05/27 08:25:39;;;;;;;2.00;1.20;;;10.80;99.90;;;;;;5067206;28;20173;-78
2021/05/27 08:28:05;;;;;;;1.70;1.40;;;10.90;99.90;;;;;;5056865;28;20576;-78
2021/05/27 08:30:30;;;;;;;1.50;1.07;;;10.90;99.90;;;;;;5068480;28;20242;-78
2021/05/27 08:32:56;;;;;;;1.30;1.00;;;10.90;99.90;;;;;;5076745;28;20677;-78
2021/05/27 08:35:22;;;;;;;1.50;1.17;;;10.90;99.90;;;;;;5055480;28;20173;-78
2021/05/27 08:37:48;;;;;;;1.97;1.33;;;10.90;99.90;;;;;;5070319;28;20190;-77
2021/05/27 08:40:14;;;;;;;2.13;1.23;;;10.90;99.90;;;;;;5088722;28;20249;-79
2021/05/27 08:42:41;;;;;;;2.17;1.30;;;10.90;99.90;;;;;;5078303;28;20164;-78
2021/05/27 08:45:08;;;;;;;2.17;1.30;;;10.90;99.90;;;;;;5076969;28;20700;-78
2021/05/27 08:47:34;;;;;;;2.30;1.40;;;10.80;99.90;;;;;;5070334;28;20205;-78
2021/05/27 08:50:01;;;;;;;4.53;1.40;;;10.80;99.90;;;;;;5050001;28;20194;-79
2021/05/27 08:52:27;;;;;;;1.83;1.37;;;10.90;99.90;;;;;;5056881;28;20212;-79
2021/05/27 08:54:52;;;;;;;1.93;1.50;;;10.80;99.90;;;;;;5104872;28;20177;-79
2021/05/27 08:57:18;;;;;;;2.53;1.50;;;10.80;99.90;;;;;;5082342;28;20177;-78
2021/05/27 08:59:44;;;;;;;1.30;1.20;;;10.80;99.90;;;;;;5065254;28;20177;-78
2021/05/27 09:02:11;;;;;;;2.90;1.70;;;10.80;99.90;;;;;;5058582;28;20183;-79
2021/05/27 09:04:38;;;;;;;1.70;1.20;;;10.80;99.90;;;;;;5073005;28;20172;-79
2021/05/27 09:07:03;;;;;;;2.63;1.80;;;10.80;99.90;;;;;;5073791;28;20175;-79
2021/05/27 09:09:55;;;;;;;2.07;1.43;;;10.90;99.90;;;;;;5073051;28;20191;-78
2021/05/27 09:12:34;;;;;;;1.87;1.30;;;10.90;99.90;;;;;;5090702;28;20214;-79
2021/05/27 09:15:01;;;;;;;1.97;1.43;;;11.00;99.90;;;;;;5068034;28;20632;-77
2021/05/27 09:17:27;;;;;;;2.77;1.73;;;11.00;99.90;;;;;;5065876;28;20658;-77
2021/05/27 09:20:12;;;;;;;1.97;1.50;;;11.00;99.90;;;;;;5080551;28;20739;-78
2021/05/27 09:22:37;;;;;;;2.47;1.67;;;11.00;99.90;;;;;;5101320;28;20176;-77
2021/05/27 09:25:03;;;;;;;2.77;1.40;;;11.10;99.90;;;;;;5092700;28;20184;-78
2021/05/27 09:27:48;;;;;;;3.97;1.67;;;11.10;99.90;;;;;;5081617;28;20210;-78
2021/05/27 09:30:14;;;;;;;2.00;1.50;;;11.10;99.90;;;;;;5104585;28;20728;-77
2021/05/27 09:32:40;;;;;;;2.47;1.80;;;11.20;99.90;;;;;;5099792;28;20214;-77
2021/05/27 09:35:09;;;;;;;2.07;1.60;;;11.30;99.90;;;;;;5087644;28;20603;-77
2021/05/27 09:37:36;;;;;;;3.30;1.87;;;11.40;99.90;;;;;;5075258;28;20528;-78
2021/05/27 09:40:05;;;;;;;2.10;1.50;;;11.40;99.90;;;;;;5097164;28;20206;-78
2021/05/27 09:42:49;;;;;;;3.03;1.37;;;11.30;99.90;;;;;;5069692;28;20173;-78
2021/05/27 09:45:18;;;;;;;5.00;1.80;;;11.20;99.90;;;;;;5092388;28;20204;-78
2021/05/27 09:47:44;;;;;;;2.13;1.70;;;11.20;99.90;;;;;;5067234;28;20249;-77
2021/05/27 09:50:11;;;;;;;2.83;1.57;;;11.20;99.90;;;;;;5077455;28;20690;-78
2021/05/27 09:52:41;;;;;;;2.73;1.87;;;11.20;99.90;;;;;;5068622;28;20210;-78
2021/05/27 09:55:14;;;;;;;2.80;1.70;;;11.10;99.90;;;;;;5093208;28;20265;-78
2021/05/27 09:57:40;;;;;;;2.20;1.47;;;11.10;99.90;;;;;;5102675;28;20178;-77
2021/05/27 10:00:07;;;;;;;2.47;1.77;;;11.10;99.90;;;;;;5080985;28;20188;-78
2021/05/27 10:02:36;;;;;;;2.13;1.30;;;11.10;99.90;;;;;;5112778;28;20183;-78
2021/05/27 10:05:03;;;;;;;2.53;1.70;;;11.10;99.90;;;;;;5096147;28;20179;-78
2021/05/27 10:07:38;;;;;;;2.50;1.67;;;11.20;99.90;;;;;;5061682;28;20183;-78
2021/05/27 10:10:05;;;;;;;3.77;1.70;;;11.20;99.90;;;;;;5077060;28;20200;-77
2021/05/27 10:12:35;;;;;;;3.03;1.60;;;11.20;99.90;;;;;;5092274;28;20251;-78
2021/05/27 10:15:00;;;;;;;2.50;1.73;;;11.20;99.90;;;;;;5093762;28;20646;-79
2021/05/27 10:17:26;;;;;;;2.10;1.60;;;11.20;99.90;;;;;;5057114;28;20179;-77
2021/05/27 10:19:52;;;;;;;2.70;1.30;;;11.20;99.90;;;;;;5087241;28;20200;-77
2021/05/27 10:22:18;;;;;;;2.17;1.50;;;11.20;99.90;;;;;;5062085;28;20210;-78
2021/05/27 10:24:44;;;;;;;2.03;1.53;;;11.20;99.90;;;;;;5062104;28;20211;-78
2021/05/27 10:27:10;;;;;;;1.83;1.17;;;11.20;99.90;;;;;;5074759;28;20211;-78
2021/05/27 10:29:36;;;;;;;1.73;1.43;;;11.40;99.90;;;;;;5068907;28;20188;-78
2021/05/27 10:32:03;;;;;;;2.30;1.40;;;11.50;99.90;;;;;;5056847;28;20268;-79
2021/05/27 10:34:46;;;;;;;1.77;1.37;;;11.60;99.90;;;;;;5073599;28;20173;-78
2021/05/27 10:37:12;;;;;;;2.23;1.47;;;11.70;99.90;;;;;;5086094;28;20668;-80
2021/05/27 10:39:38;;;;;;;2.80;1.40;;;11.90;99.90;;;;;;5097589;28;20222;-79
2021/05/27 10:42:04;;;;;;;2.40;1.43;;;12.00;99.90;;;;;;5078585;28;20176;-79
2021/05/27 10:44:29;;;;;;;2.10;1.13;;;12.00;99.90;;;;;;5110432;28;20187;-78
2021/05/27 10:46:55;;;;;;;2.93;1.07;;;12.00;99.90;;;;;;5083018;28;20557;-79
2021/05/27 10:49:42;;;;;;;2.63;1.40;;;12.10;99.90;;;;;;5113854;28;20276;-79
2021/05/27 10:52:27;;;;;;;1.70;1.40;;;12.20;99.90;;;;;;5098007;28;20552;-78
2021/05/27 10:54:53;;;;;;;2.77;1.37;;;12.50;99.90;;;;;;5083074;28;20217;-78
2021/05/27 10:57:41;;;;;;;1.83;1.17;;;12.50;99.90;;;;;;5070091;28;20187;-78
2021/05/27 11:00:33;;;;;;;2.90;1.50;;;12.50;99.90;;;;;;5111790;28;20197;-78
2021/05/27 11:03:51;;;;;;;1.60;1.23;;;12.40;99.90;;;;;;5111752;28;20636;-78
2021/05/27 11:06:32;;;;;;;1.47;1.23;;;12.30;99.90;;;;;;5079932;28;20188;-78
2021/05/27 11:12:00;;;;;;;1.70;1.20;;;12.20;99.90;;;;;;5094972;28;20211;-78
2021/05/27 11:14:35;;;;;;;1.57;1.20;;;12.10;99.90;;;;;;5079021;28;20547;-77
2021/05/27 11:17:04;;;;;;;3.00;1.10;;;12.10;99.90;;;;;;5088700;28;20343;-79
2021/05/27 11:25:10;;;;;;;2.60;1.70;;;11.80;99.90;;;;;;5087676;28;20571;-78
2021/05/27 11:27:36;;;;;;;2.17;1.30;;;11.90;99.90;;;;;;5084447;28;20187;-78
2021/05/27 11:30:20;;;;;;;1.70;1.30;;;11.80;99.90;;;;;;5089979;28;20201;-79
2021/05/27 11:32:48;;;;;;;2.30;1.40;;;11.80;99.90;;;;;;5087118;28;20215;-78
2021/05/27 11:35:13;;;;;;;3.90;1.70;;;11.80;99.90;;;;;;5075409;28;20231;-78
2021/05/27 11:37:40;;;;;;;2.63;1.57;;;11.70;99.90;;;;;;5086956;28;20177;-77
2021/05/27 11:40:07;;;;;;;4.67;2.07;;;11.60;99.90;;;;;;5074024;28;20217;-77
2021/05/27 11:42:34;;;;;;;2.97;1.50;;;11.60;99.90;;;;;;5056467;28;20221;-78
2021/05/27 11:45:01;;;;;;;2.80;1.70;;;11.60;99.90;;;;;;5058973;28;20251;-78
2021/05/27 11:47:27;;;;;;;1.90;1.50;;;11.60;99.90;;;;;;5059156;28;20184;-78
2021/05/27 11:50:13;;;;;;;2.57;1.70;;;11.60;99.90;;;;;;5082739;28;20191;-78
2021/05/27 11:52:38;;;;;;;4.23;2.10;;;11.70;99.90;;;;;;5057495;28;20204;-78
2021/05/27 11:55:11;;;;;;;1.50;1.30;;;11.70;99.90;;;;;;5075065;28;20260;-78
2021/05/27 11:57:40;;;;;;;3.67;1.87;;;11.70;99.90;;;;;;5092585;28;20173;-79
2021/05/27 12:00:10;;;;;;;2.07;1.50;;;11.60;99.90;;;;;;5103384;28;20416;-78
2021/05/27 12:02:50;;;;;;;1.60;1.50;;;11.70;99.90;;;;;;5067387;28;20190;-78
2021/05/27 12:05:25;;;;;;;4.57;1.80;;;11.60;99.90;;;;;;5080494;28;20204;-79
2021/05/27 12:07:59;;;;;;;2.90;1.50;;;11.70;99.90;;;;;;5087758;28;20659;-78
2021/05/27 12:10:32;;;;;;;2.57;1.70;;;11.80;99.90;;;;;;5110003;28;20202;-78
2021/05/27 12:12:58;;;;;;;3.60;1.60;;;11.80;99.90;;;;;;5095419;28;20198;-78
2021/05/27 12:15:25;;;;;;;3.87;2.40;;;11.90;99.90;;;;;;5093293;28;20172;-81
2021/05/27 12:17:56;;;;;;;2.67;1.70;;;11.90;99.90;;;;;;5089494;28;20168;-79
2021/05/27 12:20:33;;;;;;;2.87;1.73;;;11.80;99.90;;;;;;5089078;28;20290;-80
2021/05/27 12:23:13;;;;;;;3.27;1.70;;;11.80;99.90;;;;;;5070722;28;20259;-84
2021/05/27 12:25:39;;;;;;;2.70;1.70;;;11.70;99.90;;;;;;5069126;28;20181;-80
2021/05/27 12:28:15;;;;;;;5.33;1.33;;;11.70;99.90;;;;;;5081368;28;20276;-82
2021/05/27 12:30:53;;;;;;;3.80;1.90;;;11.80;99.90;;;;;;5085330;28;20200;-79
2021/05/27 12:33:22;;;;;;;3.53;1.90;;;11.80;99.90;;;;;;5082088;28;20192;-83
2021/05/27 12:35:52;;;;;;;3.33;1.87;;;11.80;99.90;;;;;;5092372;28;20181;-83
2021/05/27 12:38:21;;;;;;;2.20;1.43;;;11.80;99.90;;;;;;5081235;28;20199;-83
2021/05/27 12:40:51;;;;;;;1.67;1.23;;;11.80;99.90;;;;;;5101605;28;20203;-83
2021/05/27 12:43:24;;;;;;;2.20;1.27;;;11.80;99.90;;;;;;5065895;28;20592;-80
2021/05/27 12:45:52;;;;;;;2.97;1.83;;;11.80;99.90;;;;;;5059947;28;20675;-80
2021/05/27 12:48:19;;;;;;;4.43;1.67;;;11.80;99.90;;;;;;5074492;28;20181;-80
2021/05/27 12:50:56;;;;;;;1.83;1.40;;;11.80;99.90;;;;;;5062412;28;20607;-79
2021/05/27 12:53:41;;;;;;;4.23;1.90;;;11.80;99.90;;;;;;5096031;28;20188;-78
2021/05/27 12:56:14;;;;;;;2.93;1.93;;;11.80;99.90;;;;;;5078924;28;20167;-77
2021/05/27 12:58:45;;;;;;;2.90;1.90;;;12.00;99.90;;;;;;5076234;28;20177;-78
2021/05/27 13:01:11;;;;;;;3.83;1.93;;;12.10;99.90;;;;;;5062615;28;20682;-81
2021/05/27 13:03:50;;;;;;;4.37;1.97;;;12.20;99.90;;;;;;5063849;28;20180;-82
2021/05/27 13:06:20;;;;;;;3.90;1.90;;;12.30;99.90;;;;;;5061980;28;20231;-81
2021/05/27 13:08:46;;;;;;;2.37;1.70;;;12.30;99.90;;;;;;5047938;28;20215;-79
2021/05/27 13:11:42;;;;;;;2.17;1.40;;;12.40;99.90;;;;;;5042737;28;20216;-78
2021/05/27 13:14:15;;;;;;;2.43;1.10;;;12.40;99.90;;;;;;5048831;28;20196;-78
2021/05/27 13:16:42;;;;;;;1.50;1.17;;;12.50;99.90;;;;;;5076814;28;20571;-79
2021/05/27 13:19:10;;;;;;;3.17;1.37;;;12.50;99.90;;;;;;5074482;28;20177;-79
2021/05/27 13:21:41;;;;;;;1.60;1.23;;;12.40;99.90;;;;;;5056446;28;20693;-78
2021/05/27 13:24:13;;;;;;;3.27;1.47;;;12.40;99.90;;;;;;5056109;28;20188;-77
2021/05/27 13:26:39;;;;;;;2.43;1.50;;;12.40;99.90;;;;;;5072587;28;20668;-78
2021/05/27 13:29:06;;;;;;;2.13;1.47;;;12.50;99.90;;;;;;5072069;28;20173;-78
2021/05/27 13:31:42;;;;;;;2.70;1.80;;;12.50;99.90;;;;;;5038990;28;20202;-77
2021/05/27 13:34:09;;;;;;;2.27;1.40;;;12.60;99.90;;;;;;5055129;28;20178;-77
2021/05/27 13:36:43;;;;;;;3.43;1.63;;;12.60;99.90;;;;;;5072327;28;20407;-78
2021/05/27 13:39:19;;;;;;;2.67;1.30;;;12.50;99.90;;;;;;5071945;28;20209;-77
2021/05/27 13:41:45;;;;;;;1.63;1.43;;;12.50;99.90;;;;;;5039881;28;20197;-81
2021/05/27 13:44:11;;;;;;;2.70;1.63;;;12.60;99.90;;;;;;5055289;28;20228;-78